Time;durP1;ratioP1;P1;durP2;ratioP2;P2;SDS_P1;SDS_P2;PMS_P1;PMS_P2;Temp;Humidity;BMP_temperature;BMP_pressure;BME280_temperature;BME280_humidity;BME280_pressure;Samples;Min_cycle;Max_cycle;Signal;HPM_P1;HPM_P2
2022/05/07 00:01:31;;;;;;;13.97;11.77;;;9.90;99.90;;;;;;4992827;28;20238;-39
2022/05/07 00:03:57;;;;;;;13.90;11.57;;;9.90;99.90;;;;;;4993834;28;20262;-41
2022/05/07 00:06:23;;;;;;;12.23;10.33;;;9.90;99.90;;;;;;4992531;28;20180;-39
2022/05/07 00:08:49;;;;;;;14.07;11.30;;;9.90;99.90;;;;;;4992639;28;20187;-38
2022/05/07 00:11:20;;;;;;;14.03;11.03;;;9.90;99.90;;;;;;4992648;28;20179;-39
2022/05/07 00:13:49;;;;;;;12.97;10.93;;;9.80;99.90;;;;;;4992601;28;20203;-41
2022/05/07 00:19:00;;;;;;;13.13;10.80;;;9.70;99.90;;;;;;4993491;28;20203;-38
2022/05/07 00:21:26;;;;;;;11.97;10.43;;;9.70;99.90;;;;;;4992489;28;20188;-39
2022/05/07 00:23:52;;;;;;;14.60;11.17;;;9.70;99.90;;;;;;4975976;28;20210;-41
2022/05/07 00:26:18;;;;;;;12.33;10.27;;;9.50;99.90;;;;;;4993698;28;20288;-41
2022/05/07 00:28:45;;;;;;;11.03;9.93;;;9.50;99.90;;;;;;5008493;28;20187;-40
2022/05/07 00:31:12;;;;;;;11.93;10.17;;;9.40;99.90;;;;;;4992603;28;20237;-38
2022/05/07 00:33:38;;;;;;;11.67;10.47;;;9.30;99.90;;;;;;5011480;28;20183;-39
2022/05/07 00:36:04;;;;;;;13.43;10.83;;;9.20;99.90;;;;;;4995456;28;20216;-42
2022/05/07 00:38:30;;;;;;;14.33;10.13;;;9.20;99.90;;;;;;5011788;28;20176;-39
2022/05/07 00:40:56;;;;;;;11.87;10.27;;;9.10;99.90;;;;;;4994997;28;20194;-38
2022/05/07 00:43:22;;;;;;;11.30;10.10;;;9.10;99.90;;;;;;5011908;28;20237;-38
2022/05/07 00:45:52;;;;;;;14.77;11.13;;;8.90;99.90;;;;;;5012709;28;20199;-39
2022/05/07 00:48:18;;;;;;;11.83;9.90;;;8.80;99.90;;;;;;4995464;28;20191;-38
2022/05/07 00:53:31;;;;;;;15.17;11.60;;;8.90;99.90;;;;;;5011350;28;20198;-38
2022/05/07 00:55:57;;;;;;;12.27;10.57;;;8.80;99.90;;;;;;4995094;28;20207;-38
2022/05/07 00:58:23;;;;;;;13.83;11.43;;;8.80;99.90;;;;;;5011348;28;20675;-41
2022/05/07 01:00:52;;;;;;;12.83;10.83;;;8.90;99.90;;;;;;5011150;28;20241;-38
2022/05/07 01:03:19;;;;;;;13.27;11.33;;;9.00;99.90;;;;;;4995144;28;20175;-38
2022/05/07 01:05:45;;;;;;;11.93;10.47;;;9.10;99.90;;;;;;4994672;28;20285;-39
2022/05/07 01:08:12;;;;;;;11.63;10.17;;;9.10;99.90;;;;;;4994947;28;20175;-39
2022/05/07 01:10:42;;;;;;;11.80;10.33;;;9.10;99.90;;;;;;5010826;28;20179;-40
2022/05/07 01:13:09;;;;;;;13.10;10.10;;;9.10;99.90;;;;;;4994622;28;20282;-39
2022/05/07 01:15:48;;;;;;;12.00;10.00;;;9.20;99.90;;;;;;4994986;28;20215;-39
2022/05/07 01:18:17;;;;;;;11.10;9.57;;;9.30;99.90;;;;;;4994499;28;20194;-40
2022/05/07 01:20:43;;;;;;;11.63;9.23;;;9.30;99.90;;;;;;5010447;28;20179;-40
2022/05/07 01:23:09;;;;;;;10.50;9.13;;;9.20;99.90;;;;;;4994424;28;20179;-41
2022/05/07 01:25:35;;;;;;;12.67;9.47;;;9.20;99.90;;;;;;5010624;28;20230;-40
2022/05/07 01:28:03;;;;;;;10.93;9.20;;;9.20;99.90;;;;;;5010703;28;20237;-41
2022/05/07 01:30:31;;;;;;;11.17;9.03;;;9.00;99.90;;;;;;5010296;28;20218;-39
2022/05/07 01:32:57;;;;;;;10.13;8.80;;;9.00;99.90;;;;;;5010001;28;20531;-40
2022/05/07 01:35:23;;;;;;;10.60;8.27;;;8.90;99.90;;;;;;4994040;28;20218;-39
2022/05/07 01:37:52;;;;;;;11.57;9.27;;;8.90;99.90;;;;;;5010385;28;20179;-39
2022/05/07 01:40:18;;;;;;;9.67;8.67;;;8.80;99.90;;;;;;5010054;28;20188;-40
2022/05/07 01:42:47;;;;;;;12.50;9.60;;;8.80;99.90;;;;;;5010422;28;20233;-39
2022/05/07 01:45:13;;;;;;;10.87;9.60;;;8.70;99.90;;;;;;5010209;28;20202;-38
2022/05/07 01:50:29;;;;;;;13.27;9.70;;;8.40;99.90;;;;;;5009957;28;20190;-39
2022/05/07 01:52:55;;;;;;;13.13;9.77;;;8.20;99.90;;;;;;4994154;28;20178;-41
2022/05/07 01:55:21;;;;;;;11.87;9.30;;;8.20;99.90;;;;;;5010184;28;20205;-39
2022/05/07 01:57:50;;;;;;;11.33;9.33;;;8.10;99.90;;;;;;5010125;28;20270;-38
2022/05/07 02:00:17;;;;;;;11.70;9.03;;;8.00;99.90;;;;;;4993600;28;20217;-41
2022/05/07 02:02:43;;;;;;;12.43;9.07;;;8.10;99.90;;;;;;5010051;28;20197;-38
2022/05/07 02:05:17;;;;;;;8.93;8.00;;;8.10;99.90;;;;;;5009689;28;20221;-39
2022/05/07 02:07:44;;;;;;;8.87;7.93;;;8.20;99.90;;;;;;5009838;28;20262;-40
2022/05/07 02:10:12;;;;;;;10.07;7.77;;;8.30;99.90;;;;;;5009808;28;20186;-38
2022/05/07 02:12:38;;;;;;;9.37;8.17;;;8.30;99.90;;;;;;4993601;28;20198;-38
2022/05/07 02:15:04;;;;;;;8.60;7.30;;;8.30;99.90;;;;;;5009555;28;20288;-37
2022/05/07 02:17:31;;;;;;;7.90;7.07;;;8.30;99.90;;;;;;5009934;28;20181;-39
2022/05/07 02:19:57;;;;;;;9.77;7.20;;;8.30;99.90;;;;;;5009693;28;20185;-39
2022/05/07 02:22:23;;;;;;;10.13;7.00;;;8.30;99.90;;;;;;5010199;28;20185;-38
2022/05/07 02:24:51;;;;;;;10.63;6.97;;;8.30;99.90;;;;;;5009689;28;20198;-38
2022/05/07 02:27:21;;;;;;;9.67;7.57;;;8.20;99.90;;;;;;5010011;28;20189;-41
2022/05/07 02:29:48;;;;;;;11.43;8.80;;;8.10;99.90;;;;;;5009662;28;20198;-44
2022/05/07 02:32:14;;;;;;;16.93;9.27;;;8.00;99.90;;;;;;5009644;28;20236;-38
2022/05/07 02:34:43;;;;;;;11.70;8.97;;;7.90;99.90;;;;;;5009661;28;20206;-38
2022/05/07 02:37:17;;;;;;;11.13;9.60;;;7.70;99.90;;;;;;5009868;28;20193;-38
2022/05/07 02:39:50;;;;;;;9.60;8.60;;;7.80;99.90;;;;;;5009585;28;20187;-40
2022/05/07 02:45:10;;;;;;;14.90;9.87;;;7.90;99.90;;;;;;5010938;28;20231;-38
2022/05/07 02:47:38;;;;;;;12.60;9.77;;;7.80;99.90;;;;;;5013586;28;20655;-39
2022/05/07 02:50:06;;;;;;;9.90;8.87;;;7.80;99.90;;;;;;4997223;28;20186;-38
2022/05/07 02:52:35;;;;;;;12.27;9.20;;;7.80;99.90;;;;;;5013447;28;20189;-38
2022/05/07 02:55:04;;;;;;;13.07;8.67;;;7.80;99.90;;;;;;5013330;28;20206;-37
2022/05/07 02:57:30;;;;;;;10.63;9.60;;;7.80;99.90;;;;;;5013635;28;20178;-38
2022/05/07 02:59:56;;;;;;;11.53;9.67;;;7.80;99.90;;;;;;5013413;28;20252;-38
2022/05/07 03:02:23;;;;;;;10.33;9.23;;;7.80;99.90;;;;;;5013565;28;20185;-39
2022/05/07 03:04:49;;;;;;;9.47;8.43;;;7.70;99.90;;;;;;5013007;28;20308;-38
2022/05/07 03:07:16;;;;;;;11.47;8.27;;;7.70;99.90;;;;;;5013289;28;20182;-38
2022/05/07 03:09:43;;;;;;;10.50;8.70;;;7.60;99.90;;;;;;5012838;28;20186;-39
2022/05/07 03:12:11;;;;;;;10.87;9.73;;;7.60;99.90;;;;;;4997276;28;20188;-38
2022/05/07 03:14:39;;;;;;;10.23;8.67;;;7.60;99.90;;;;;;4997122;28;20216;-38
2022/05/07 03:17:07;;;;;;;9.87;8.17;;;7.60;99.90;;;;;;5012929;28;20235;-38
2022/05/07 03:19:34;;;;;;;10.07;8.93;;;7.70;99.90;;;;;;5012768;28;20202;-40
2022/05/07 03:22:00;;;;;;;9.53;7.83;;;7.60;99.90;;;;;;5013008;28;20178;-38
2022/05/07 03:24:28;;;;;;;16.13;8.40;;;7.50;99.90;;;;;;4996658;28;20213;-38
2022/05/07 03:26:57;;;;;;;10.00;8.40;;;7.50;99.90;;;;;;5012924;28;20219;-37
2022/05/07 03:29:23;;;;;;;9.73;7.63;;;7.50;99.90;;;;;;4996553;28;20666;-38
2022/05/07 03:31:56;;;;;;;9.10;6.93;;;7.50;99.90;;;;;;4997461;28;20193;-38
2022/05/07 03:34:22;;;;;;;10.20;7.33;;;7.40;99.90;;;;;;5013150;28;20208;-38
2022/05/07 03:36:50;;;;;;;9.40;7.17;;;7.40;99.90;;;;;;5012584;28;20210;-38
2022/05/07 03:39:16;;;;;;;9.37;6.87;;;7.40;99.90;;;;;;5012856;28;20193;-38
2022/05/07 03:41:42;;;;;;;9.90;6.83;;;7.40;99.90;;;;;;4996333;28;20184;-37
2022/05/07 03:44:10;;;;;;;9.00;6.40;;;7.40;99.90;;;;;;5012438;28;20226;-37
2022/05/07 03:46:37;;;;;;;7.67;6.03;;;7.50;99.90;;;;;;5012652;28;20242;-38
2022/05/07 03:49:05;;;;;;;7.00;6.30;;;7.40;99.90;;;;;;5012402;28;20276;-37
2022/05/07 03:53:29;;;;;;;7.13;6.00;;;7.40;99.90;;;;;;5012628;28;20193;-37
2022/05/07 03:54:18;;;;;;;7.07;5.30;;;7.40;99.90;;;;;;5012482;28;20208;-38
2022/05/07 03:56:47;;;;;;;7.10;5.90;;;7.40;99.90;;;;;;4995992;28;20292;-38
2022/05/07 03:59:13;;;;;;;5.87;5.10;;;7.40;99.90;;;;;;5012371;28;20276;-38
2022/05/07 04:01:44;;;;;;;6.83;5.83;;;7.30;99.90;;;;;;5012261;28;20229;-38
2022/05/07 04:06:46;;;;;;;6.40;5.33;;;7.30;99.90;;;;;;5011349;28;20243;-29
2022/05/07 04:09:13;;;;;;;6.97;5.47;;;7.20;99.90;;;;;;5011763;28;20187;-29
2022/05/07 04:11:39;;;;;;;6.23;5.50;;;7.20;99.90;;;;;;5012322;28;20190;-30
2022/05/07 04:14:06;;;;;;;8.60;6.00;;;7.20;99.90;;;;;;5011878;28;20241;-30
2022/05/07 04:16:32;;;;;;;6.30;5.70;;;7.20;99.90;;;;;;5011970;28;20246;-29
2022/05/07 04:19:03;;;;;;;8.20;5.40;;;7.20;99.90;;;;;;4996588;28;20216;-29
2022/05/07 04:21:32;;;;;;;6.07;5.47;;;7.20;99.90;;;;;;4996409;28;20185;-29
2022/05/07 04:24:07;;;;;;;7.90;5.50;;;7.20;99.90;;;;;;5006329;28;20183;-30
2022/05/07 04:26:34;;;;;;;6.30;5.70;;;7.20;99.90;;;;;;4995845;28;20182;-29
2022/05/07 04:29:01;;;;;;;6.97;6.27;;;7.20;99.90;;;;;;4995434;28;20190;-30
2022/05/07 04:31:28;;;;;;;7.50;6.50;;;7.20;99.90;;;;;;5011966;28;20202;-30
2022/05/07 04:33:57;;;;;;;9.03;6.47;;;7.20;99.90;;;;;;4996215;28;20197;-29
2022/05/07 04:36:25;;;;;;;7.83;5.80;;;7.20;99.90;;;;;;5011689;28;20272;-29
2022/05/07 04:38:53;;;;;;;6.80;6.00;;;7.20;99.90;;;;;;4995675;28;20189;-29
2022/05/07 04:41:26;;;;;;;8.03;5.83;;;7.30;99.90;;;;;;5011574;28;20182;-29
2022/05/07 04:43:52;;;;;;;7.07;6.37;;;7.40;99.90;;;;;;4995268;28;20294;-30
2022/05/07 04:46:18;;;;;;;8.67;6.57;;;7.50;99.90;;;;;;5011343;28;20218;-29
2022/05/07 04:48:50;;;;;;;8.77;6.80;;;7.50;99.90;;;;;;5008231;28;20187;-28
2022/05/07 04:51:15;;;;;;;8.33;7.43;;;7.60;99.90;;;;;;5031320;28;20599;-28
2022/05/07 04:53:55;;;;;;;9.90;7.80;;;7.60;99.90;;;;;;5016339;28;20189;-29
2022/05/07 04:56:24;;;;;;;10.20;7.47;;;7.70;99.90;;;;;;5031135;28;20218;-29
2022/05/07 04:58:59;;;;;;;9.03;7.40;;;7.70;99.90;;;;;;5030918;28;20185;-29
2022/05/07 05:01:33;;;;;;;8.37;7.57;;;7.70;99.90;;;;;;4991691;28;20187;-30
2022/05/07 05:04:01;;;;;;;7.57;6.87;;;7.70;99.90;;;;;;4991185;28;20221;-29
2022/05/07 05:06:30;;;;;;;7.50;6.80;;;7.70;99.90;;;;;;5002392;28;20288;-30
2022/05/07 05:09:04;;;;;;;7.90;7.00;;;7.80;99.90;;;;;;5010065;28;20191;-29
2022/05/07 05:11:32;;;;;;;7.23;6.53;;;7.90;99.90;;;;;;5012111;28;20183;-31
2022/05/07 05:13:58;;;;;;;7.47;6.77;;;7.90;99.90;;;;;;4995971;28;20209;-30
2022/05/07 05:16:24;;;;;;;8.40;6.83;;;8.00;99.90;;;;;;5010781;28;20205;-30
2022/05/07 05:18:56;;;;;;;8.17;7.30;;;8.00;99.90;;;;;;4994502;28;20531;-29
2022/05/07 05:21:22;;;;;;;8.87;7.20;;;8.10;99.90;;;;;;4994538;28;20186;-29
2022/05/07 05:24:01;;;;;;;8.33;7.10;;;8.10;99.90;;;;;;5009230;28;20194;-30
2022/05/07 05:26:29;;;;;;;8.73;7.87;;;8.30;99.90;;;;;;4994312;28;20181;-29
2022/05/07 05:28:57;;;;;;;8.70;7.23;;;8.40;99.90;;;;;;4994292;28;20193;-28
2022/05/07 05:31:24;;;;;;;10.17;8.23;;;8.50;99.90;;;;;;4994057;28;20195;-28
2022/05/07 05:33:58;;;;;;;8.97;7.90;;;8.50;99.90;;;;;;4995767;28;20179;-31
2022/05/07 05:36:32;;;;;;;11.07;8.03;;;8.60;99.90;;;;;;4995307;28;20206;-29
2022/05/07 05:38:59;;;;;;;8.73;7.90;;;8.70;99.90;;;;;;4993919;28;20186;-31
2022/05/07 05:41:28;;;;;;;8.97;8.07;;;8.80;99.90;;;;;;5010725;28;20199;-29
2022/05/07 05:43:54;;;;;;;9.83;7.83;;;8.90;99.90;;;;;;4994142;28;20226;-29
2022/05/07 05:46:20;;;;;;;9.17;8.27;;;9.00;99.90;;;;;;4993747;28;20234;-29
2022/05/07 05:48:48;;;;;;;8.47;7.70;;;9.10;99.90;;;;;;4994046;28;20226;-30
2022/05/07 05:51:15;;;;;;;8.63;7.83;;;9.30;99.90;;;;;;4993393;28;20184;-30
2022/05/07 05:53:44;;;;;;;9.43;8.30;;;9.40;99.90;;;;;;4994231;28;20266;-29
2022/05/07 05:56:12;;;;;;;9.23;8.13;;;9.50;99.90;;;;;;5010127;28;20280;-29
2022/05/07 05:58:43;;;;;;;9.30;8.40;;;9.60;99.90;;;;;;4994395;28;20181;-29
2022/05/07 06:01:12;;;;;;;8.63;7.77;;;9.60;99.90;;;;;;5009688;28;20180;-29
2022/05/07 06:03:49;;;;;;;9.63;8.73;;;9.80;99.90;;;;;;4994778;28;20186;-29
2022/05/07 06:06:17;;;;;;;9.40;8.50;;;10.00;99.90;;;;;;4993307;28;20214;-29
2022/05/07 06:08:47;;;;;;;8.93;8.07;;;10.20;99.90;;;;;;4992888;28;20226;-33
2022/05/07 06:11:14;;;;;;;10.43;8.70;;;10.30;99.90;;;;;;4993591;28;20285;-30
2022/05/07 06:13:43;;;;;;;10.93;7.60;;;10.50;99.90;;;;;;5009477;28;20643;-29
2022/05/07 06:16:09;;;;;;;7.90;7.07;;;10.60;99.90;;;;;;4974035;28;20322;-30
2022/05/07 06:18:35;;;;;;;8.53;7.03;;;10.80;99.90;;;;;;4990075;28;20179;-29
2022/05/07 06:21:05;;;;;;;7.80;6.97;;;10.90;99.90;;;;;;4973669;28;20287;-31
2022/05/07 06:23:36;;;;;;;7.80;7.00;;;11.00;99.90;;;;;;4974456;28;20178;-31
2022/05/07 06:28:47;;;;;;;8.37;6.73;;;11.10;99.90;;;;;;4990251;28;20199;-30
2022/05/07 06:31:14;;;;;;;8.43;6.97;;;11.20;99.90;;;;;;5007280;28;20230;-29
2022/05/07 06:33:43;;;;;;;8.67;7.07;;;11.40;99.90;;;;;;4993745;28;20184;-31
2022/05/07 06:36:11;;;;;;;7.97;7.17;;;11.50;99.90;;;;;;4993976;28;20223;-31
2022/05/07 06:38:40;;;;;;;6.93;6.20;;;11.70;99.90;;;;;;4993909;28;20179;-34
2022/05/07 06:41:09;;;;;;;8.63;6.80;;;11.80;99.90;;;;;;5009518;28;20176;-29
2022/05/07 06:43:45;;;;;;;10.53;7.27;;;11.90;99.90;;;;;;5009552;28;20182;-29
2022/05/07 06:46:22;;;;;;;7.97;7.17;;;12.10;99.90;;;;;;5009903;28;20239;-31
2022/05/07 06:49:02;;;;;;;7.00;6.30;;;12.30;99.90;;;;;;5009540;28;20176;-29
2022/05/07 06:51:39;;;;;;;8.10;6.50;;;12.50;99.90;;;;;;5009685;28;20197;-29
2022/05/07 06:54:05;;;;;;;7.50;6.70;;;12.70;99.90;;;;;;5009657;28;20181;-30
2022/05/07 06:56:31;;;;;;;7.17;6.47;;;12.80;99.90;;;;;;5009680;28;20285;-30
2022/05/07 06:58:56;;;;;;;7.67;6.93;;;12.90;99.90;;;;;;5009105;28;20197;-30
2022/05/07 07:01:22;;;;;;;7.73;6.83;;;13.00;99.90;;;;;;5009892;28;20223;-30
2022/05/07 07:03:48;;;;;;;7.53;6.73;;;12.90;99.90;;;;;;5009651;28;20517;-29
2022/05/07 07:06:15;;;;;;;10.53;7.27;;;13.00;99.90;;;;;;4993194;28;20222;-29
2022/05/07 07:08:41;;;;;;;8.40;7.37;;;12.90;99.90;;;;;;4993218;28;20240;-29
2022/05/07 07:11:09;;;;;;;9.67;7.00;;;13.10;99.90;;;;;;4993211;28;20193;-30
2022/05/07 07:13:35;;;;;;;8.20;7.30;;;13.20;99.90;;;;;;5009142;28;20195;-30
2022/05/07 07:16:01;;;;;;;9.87;7.03;;;13.40;99.90;;;;;;4993065;28;20222;-29
2022/05/07 07:18:27;;;;;;;8.73;7.00;;;13.50;99.90;;;;;;5009527;28;20183;-29
2022/05/07 07:20:52;;;;;;;9.07;7.00;;;13.60;99.90;;;;;;5007991;28;20179;-31
2022/05/07 07:23:18;;;;;;;9.10;7.60;;;13.70;99.90;;;;;;4992738;28;20230;-30
2022/05/07 07:25:44;;;;;;;9.10;8.20;;;13.90;99.90;;;;;;4992491;28;20202;-31
2022/05/07 07:28:12;;;;;;;9.33;8.43;;;14.00;99.90;;;;;;5008806;28;20176;-30
2022/05/07 07:30:38;;;;;;;8.37;7.57;;;14.20;99.90;;;;;;4992424;28;20187;-30
2022/05/07 07:33:05;;;;;;;8.27;7.53;;;14.30;99.90;;;;;;5013678;28;20211;-31
2022/05/07 07:35:31;;;;;;;9.30;8.10;;;14.50;99.90;;;;;;5013827;28;20203;-32
2022/05/07 07:37:57;;;;;;;8.77;7.87;;;14.50;99.90;;;;;;4996666;28;20281;-29
2022/05/07 07:40:26;;;;;;;9.07;7.97;;;14.50;99.90;;;;;;4996311;28;20254;-29
2022/05/07 07:42:52;;;;;;;8.53;7.70;;;14.60;99.90;;;;;;5012914;28;20176;-30
2022/05/07 07:48:05;;;;;;;8.60;7.77;;;14.90;99.90;;;;;;5014459;28;20176;-30
2022/05/07 07:50:36;;;;;;;9.37;8.40;;;15.00;99.90;;;;;;5012403;28;20186;-29
2022/05/07 07:53:04;;;;;;;8.63;7.73;;;15.00;99.90;;;;;;4995948;28;20203;-30
2022/05/07 07:55:30;;;;;;;8.47;7.67;;;15.10;99.90;;;;;;5012324;28;20574;-30
2022/05/07 07:58:01;;;;;;;9.30;6.90;;;15.10;99.90;;;;;;5012500;28;20179;-31
2022/05/07 08:00:28;;;;;;;8.20;7.40;;;15.30;99.90;;;;;;5001396;28;20206;-32
2022/05/07 08:02:56;;;;;;;12.17;8.23;;;15.50;99.90;;;;;;4993976;28;20195;-30
2022/05/07 08:05:28;;;;;;;8.60;7.80;;;15.60;99.90;;;;;;4976307;28;20211;-29
2022/05/07 08:13:23;;;;;;;9.80;7.57;;;15.90;99.90;;;;;;5008876;28;20179;-31
2022/05/07 08:15:49;;;;;;;9.73;7.57;;;16.10;99.90;;;;;;4992210;28;20227;-30
2022/05/07 08:18:16;;;;;;;8.47;7.60;;;16.20;99.90;;;;;;4976433;28;20199;-30
2022/05/07 08:20:43;;;;;;;8.60;7.37;;;16.30;99.90;;;;;;4976107;28;20180;-31
2022/05/07 08:23:10;;;;;;;9.10;7.47;;;16.50;99.90;;;;;;5008760;28;20584;-30
2022/05/07 08:25:36;;;;;;;8.20;7.32;;;16.70;99.90;;;;;;4976096;28;20232;-32
2022/05/07 08:28:03;;;;;;;9.10;7.22;;;17.00;99.90;;;;;;4976161;28;20186;-32
2022/05/07 08:30:30;;;;;;;8.40;7.57;;;17.30;99.90;;;;;;5002699;28;20245;-30
2022/05/07 08:32:56;;;;;;;8.52;7.72;;;17.40;99.90;;;;;;4995414;28;20187;-30
2022/05/07 08:35:22;;;;;;;7.90;7.10;;;17.30;99.90;;;;;;5011508;28;20199;-30
2022/05/07 08:37:47;;;;;;;7.43;6.40;;;17.60;99.90;;;;;;4995374;28;20250;-31
2022/05/07 08:40:14;;;;;;;8.15;6.75;;;17.90;99.90;;;;;;4994876;28;20183;-31
2022/05/07 08:42:41;;;;;;;8.95;7.22;;;18.20;99.90;;;;;;4994064;28;20179;-31
2022/05/07 08:45:07;;;;;;;8.88;7.32;;;18.40;99.90;;;;;;4995423;28;20241;-30
2022/05/07 08:47:33;;;;;;;8.38;6.70;;;18.40;99.90;;;;;;5011569;28;20186;-30
2022/05/07 08:49:59;;;;;;;8.57;7.30;;;18.60;99.90;;;;;;4995141;28;20183;-31
2022/05/07 08:52:27;;;;;;;9.55;8.55;;;18.70;99.90;;;;;;4995388;28;20186;-32
2022/05/07 08:54:53;;;;;;;8.05;7.30;;;18.70;99.90;;;;;;5011166;28;20195;-31
2022/05/07 08:57:18;;;;;;;8.50;7.07;;;18.90;99.90;;;;;;5013164;28;20203;-32
2022/05/07 08:59:50;;;;;;;9.00;7.15;;;19.10;99.90;;;;;;5010344;28;20183;-32
2022/05/07 09:02:16;;;;;;;8.98;8.07;;;19.30;99.90;;;;;;4995284;28;20198;-31
2022/05/07 09:04:56;;;;;;;8.05;7.25;;;19.50;99.90;;;;;;4995075;28;20257;-32
2022/05/07 09:07:22;;;;;;;8.90;6.50;;;19.50;99.90;;;;;;5011103;28;20175;-32
2022/05/07 09:09:50;;;;;;;10.60;7.93;;;19.80;99.90;;;;;;5012184;28;20190;-31
2022/05/07 09:12:29;;;;;;;8.55;7.65;;;19.80;99.90;;;;;;4994591;28;20179;-32
2022/05/07 09:15:02;;;;;;;7.07;6.38;;;19.60;99.90;;;;;;5010787;28;20679;-31
2022/05/07 09:17:28;;;;;;;8.60;7.68;;;19.70;99.90;;;;;;5010987;28;20211;-31
2022/05/07 09:19:54;;;;;;;8.77;7.05;;;19.60;99.90;;;;;;5011059;28;20179;-30
2022/05/07 09:22:22;;;;;;;8.48;6.95;;;19.50;99.90;;;;;;5014055;28;20163;-31
2022/05/07 09:24:55;;;;;;;7.35;6.65;;;19.40;99.90;;;;;;5012101;28;20199;-30
2022/05/07 09:27:22;;;;;;;9.48;6.90;;;19.40;99.90;;;;;;4994497;28;20183;-32
2022/05/07 09:30:03;;;;;;;10.07;6.78;;;19.30;99.90;;;;;;5009896;28;20195;-31
2022/05/07 09:32:36;;;;;;;15.32;9.38;;;19.00;99.90;;;;;;5010763;28;20190;-31
2022/05/07 09:38:01;;;;;;;7.45;5.38;;;18.50;99.90;;;;;;5012427;28;20187;-31
2022/05/07 09:40:28;;;;;;;7.10;4.97;;;18.40;99.90;;;;;;5012456;28;20265;-30
2022/05/07 09:42:58;;;;;;;10.32;5.78;;;18.20;99.90;;;;;;4996161;28;20269;-29
2022/05/07 09:45:28;;;;;;;11.48;7.35;;;18.20;99.90;;;;;;5012434;28;20278;-30
2022/05/07 09:47:55;;;;;;;7.00;5.80;;;18.10;99.90;;;;;;5024901;28;20177;-30
2022/05/07 09:58:44;;;;;;;6.00;4.90;;;18.20;99.90;;;;;;5010368;28;20179;-30
2022/05/07 10:01:21;;;;;;;15.30;8.40;;;18.30;99.90;;;;;;5010018;28;20175;-30
2022/05/07 10:03:59;;;;;;;9.13;5.78;;;18.40;99.90;;;;;;5010077;28;20175;-30
2022/05/07 10:06:38;;;;;;;6.90;4.35;;;18.50;99.90;;;;;;5030873;23;20327;-39
2022/05/07 10:09:18;;;;;;;7.45;4.78;;;18.80;99.90;;;;;;4992775;28;20253;-38
2022/05/07 10:11:44;;;;;;;5.68;3.58;;;19.00;99.90;;;;;;4993874;28;20190;-38
2022/05/07 10:14:23;;;;;;;4.30;3.40;;;19.10;99.90;;;;;;5011380;28;20164;-39
2022/05/07 10:17:16;;;;;;;5.50;3.30;;;19.20;99.90;;;;;;4990094;28;20200;-38
2022/05/07 10:19:46;;;;;;;5.25;3.13;;;19.30;99.90;;;;;;4973565;28;20188;-36
2022/05/07 10:22:21;;;;;;;3.53;2.70;;;19.20;99.90;;;;;;5006771;28;20183;-37
2022/05/07 10:25:07;;;;;;;4.28;3.15;;;19.30;99.90;;;;;;4990272;28;20203;-37
2022/05/07 10:27:44;;;;;;;3.55;3.10;;;19.40;99.90;;;;;;4991358;28;20270;-37
2022/05/07 10:30:10;;;;;;;11.70;4.40;;;19.40;99.90;;;;;;5006798;28;20230;-40
2022/05/07 10:33:03;;;;;;;4.45;3.25;;;19.70;99.90;;;;;;4992050;28;20199;-38
2022/05/07 10:35:49;;;;;;;3.20;2.80;;;20.00;99.90;;;;;;4986937;28;20231;-41
2022/05/07 10:38:27;;;;;;;4.47;3.00;;;20.30;99.90;;;;;;4989706;28;20656;-42
2022/05/07 10:40:58;;;;;;;3.50;3.20;;;20.70;99.90;;;;;;4990020;28;20190;-41
2022/05/07 10:43:35;;;;;;;5.13;2.97;;;20.80;99.90;;;;;;4975915;28;20549;-40
2022/05/07 10:46:12;;;;;;;3.75;2.50;;;21.10;99.90;;;;;;4975712;28;20207;-39
2022/05/07 10:48:56;;;;;;;3.33;2.88;;;21.30;99.90;;;;;;4991702;28;20180;-39
2022/05/07 10:51:33;;;;;;;6.50;3.30;;;21.50;99.90;;;;;;4975031;28;20200;-39
2022/05/07 10:54:00;;;;;;;4.93;2.70;;;21.70;99.90;;;;;;5006490;28;20183;-39
2022/05/07 10:56:31;;;;;;;3.53;3.08;;;21.90;99.90;;;;;;4989485;28;20250;-42
2022/05/07 10:58:57;;;;;;;2.72;2.40;;;21.80;99.80;;;;;;4989686;28;20272;-42
2022/05/07 11:01:25;;;;;;;3.25;2.45;;;21.80;99.40;;;;;;4990134;28;20220;-38
2022/05/07 11:04:05;;;;;;;3.22;2.65;;;21.80;99.50;;;;;;4989318;28;20252;-39
2022/05/07 11:06:45;;;;;;;3.75;2.83;;;21.70;98.30;;;;;;5007856;28;20214;-41
2022/05/07 11:09:16;;;;;;;3.35;2.08;;;21.60;99.30;;;;;;4995062;28;20184;-41
2022/05/07 11:11:52;;;;;;;3.55;2.38;;;21.50;98.30;;;;;;4994008;28;20278;-40
2022/05/07 11:14:36;;;;;;;3.08;2.30;;;21.20;98.90;;;;;;4993891;28;20191;-41
2022/05/07 11:17:04;;;;;;;4.88;2.53;;;20.90;98.30;;;;;;4993458;28;20208;-38
2022/05/07 11:19:34;;;;;;;5.97;2.75;;;20.70;99.40;;;;;;4993248;28;20184;-40
2022/05/07 11:22:03;;;;;;;7.80;3.53;;;20.80;99.70;;;;;;5009623;28;20262;-41
2022/05/07 11:24:33;;;;;;;4.95;3.13;;;21.00;99.50;;;;;;4993050;28;20283;-40
2022/05/07 11:27:05;;;;;;;4.85;2.90;;;21.50;99.90;;;;;;4992488;28;20242;-40
2022/05/07 11:29:32;;;;;;;4.38;2.47;;;21.90;98.70;;;;;;5009439;28;20191;-39
2022/05/07 11:32:09;;;;;;;4.25;2.85;;;22.10;98.80;;;;;;4992869;28;20680;-41
2022/05/07 11:34:39;;;;;;;6.10;3.10;;;22.20;98.30;;;;;;4994846;28;20225;-38
2022/05/07 11:37:16;;;;;;;4.18;3.03;;;22.30;98.90;;;;;;4993198;28;20319;-36
2022/05/07 11:39:54;;;;;;;5.78;2.85;;;22.30;97.10;;;;;;4992908;28;20180;-37
2022/05/07 11:42:33;;;;;;;3.75;2.63;;;22.10;97.20;;;;;;4976865;28;20222;-38
2022/05/07 11:47:56;;;;;;;3.38;2.70;;;22.10;98.70;;;;;;4993111;28;20275;-41
2022/05/07 11:50:27;;;;;;;2.75;2.38;;;22.30;98.10;;;;;;4992869;28;20272;-39
2022/05/07 11:52:54;;;;;;;2.95;2.40;;;22.70;98.40;;;;;;4993300;28;20267;-37
2022/05/07 11:55:26;;;;;;;3.58;2.38;;;22.70;98.10;;;;;;4992933;28;20668;-38
2022/05/07 11:57:53;;;;;;;2.63;2.40;;;23.00;96.60;;;;;;5009205;28;20637;-43
2022/05/07 12:00:21;;;;;;;3.05;2.67;;;23.30;96.60;;;;;;4998649;28;20201;-40
2022/05/07 12:02:53;;;;;;;3.53;3.08;;;23.60;97.90;;;;;;4973340;28;20255;-42
2022/05/07 12:05:19;;;;;;;3.20;2.90;;;23.70;95.80;;;;;;4975952;28;20221;-39
2022/05/07 12:07:50;;;;;;;3.55;3.20;;;23.90;96.70;;;;;;4993132;28;20179;-38
2022/05/07 12:10:18;;;;;;;5.70;3.10;;;24.00;95.60;;;;;;4990009;28;20180;-40
2022/05/07 12:12:48;;;;;;;4.05;2.88;;;24.10;94.00;;;;;;4992369;28;20200;-39
2022/05/07 12:17:51;;;;;;;2.72;2.50;;;24.00;93.60;;;;;;4992080;28;20204;-38
2022/05/07 12:18:05;;;;;;;3.65;2.80;;;24.00;92.90;;;;;;4990038;28;20275;-38
2022/05/07 12:20:31;;;;;;;2.80;2.60;;;23.50;92.90;;;;;;4991641;28;20172;-39
2022/05/07 12:31:14;;;;;;;4.25;3.22;;;23.00;95.70;;;;;;5010933;28;20187;-40
2022/05/07 12:33:40;;;;;;;4.03;2.72;;;23.10;94.60;;;;;;5008384;28;20184;-38
2022/05/07 12:36:08;;;;;;;2.50;2.30;;;23.30;94.80;;;;;;4992228;28;20215;-40
2022/05/07 12:38:33;;;;;;;4.03;2.72;;;23.40;93.90;;;;;;4992089;28;20176;-40
2022/05/07 12:40:59;;;;;;;3.78;2.70;;;23.60;93.80;;;;;;4991934;28;20187;-39
2022/05/07 12:43:26;;;;;;;3.17;2.72;;;23.60;95.00;;;;;;4991939;28;20180;-38
2022/05/07 12:45:52;;;;;;;2.15;2.05;;;23.70;94.00;;;;;;5008248;28;20324;-39
2022/05/07 12:48:18;;;;;;;3.17;2.50;;;23.90;94.30;;;;;;4996376;28;20688;-39
2022/05/07 12:50:46;;;;;;;2.53;2.17;;;24.20;93.30;;;;;;4991813;28;20195;-40
2022/05/07 12:53:14;;;;;;;3.67;2.70;;;24.20;92.40;;;;;;4991936;28;20270;-42
2022/05/07 12:55:42;;;;;;;3.08;2.50;;;24.30;92.60;;;;;;4991054;28;20280;-39
2022/05/07 12:58:11;;;;;;;3.95;2.63;;;24.40;91.50;;;;;;4989111;28;20184;-38
2022/05/07 13:00:40;;;;;;;3.38;2.47;;;24.10;91.00;;;;;;4991023;28;20191;-41
2022/05/07 13:03:09;;;;;;;4.22;2.40;;;24.10;92.30;;;;;;4988047;28;20224;-38
2022/05/07 13:05:38;;;;;;;3.78;2.30;;;24.30;91.50;;;;;;4972022;28;20272;-41
2022/05/07 13:08:05;;;;;;;3.25;2.60;;;24.40;91.70;;;;;;4972246;28;20204;-39
2022/05/07 13:10:33;;;;;;;5.50;3.03;;;24.50;91.10;;;;;;4971941;28;20181;-41
2022/05/07 13:13:00;;;;;;;5.32;2.83;;;24.70;91.50;;;;;;4971999;28;20410;-39
2022/05/07 13:15:28;;;;;;;3.33;2.55;;;24.90;92.00;;;;;;4971920;28;20231;-39
2022/05/07 13:17:56;;;;;;;4.00;2.47;;;25.10;91.70;;;;;;4989102;28;20200;-41
2022/05/07 13:20:22;;;;;;;3.33;2.95;;;25.20;90.10;;;;;;4989121;28;20184;-39
2022/05/07 13:22:50;;;;;;;3.92;2.70;;;25.20;88.70;;;;;;4973356;28;20180;-40
2022/05/07 13:25:16;;;;;;;3.20;2.50;;;25.10;90.30;;;;;;4972981;28;20506;-40
2022/05/07 13:27:42;;;;;;;3.08;2.10;;;25.40;90.80;;;;;;4974299;28;20258;-39
2022/05/07 13:30:09;;;;;;;3.55;2.80;;;25.70;91.10;;;;;;4972664;28;20181;-39
2022/05/07 13:32:36;;;;;;;4.43;2.90;;;24.70;87.10;;;;;;4972840;28;20271;-40
2022/05/07 13:35:02;;;;;;;3.10;2.80;;;24.50;90.50;;;;;;4988949;28;20204;-41
2022/05/07 13:37:28;;;;;;;2.47;2.28;;;24.20;92.10;;;;;;4974528;28;20294;-42
2022/05/07 13:39:56;;;;;;;3.63;2.60;;;24.10;91.10;;;;;;4989969;28;20663;-40
2022/05/07 13:42:25;;;;;;;2.90;2.60;;;23.80;91.30;;;;;;4990941;28;20175;-40
2022/05/07 13:44:51;;;;;;;2.75;2.40;;;23.50;92.10;;;;;;5023360;28;20204;-40